Time;durP1;ratioP1;P1;durP2;ratioP2;P2;SDS_P1;SDS_P2;PMS_P1;PMS_P2;Temp;Humidity;BMP_temperature;BMP_pressure;BME280_temperature;BME280_humidity;BME280_pressure;Samples;Min_cycle;Max_cycle;Signal;HPM_P1;HPM_P2
2021/03/18 00:00:51;;;;;;;17.83;8.60;;;0.10;99.90;;;0.71;92.43;101627.28;5038449;28;20033;-83
2021/03/18 00:03:26;;;;;;;16.05;8.48;;;0.00;99.90;;;0.69;92.35;101620.41;5019933;28;20404;-85
2021/03/18 00:05:54;;;;;;;14.07;8.77;;;0.00;99.90;;;0.65;92.24;101625.63;5024096;28;20029;-83
2021/03/18 00:08:22;;;;;;;15.80;7.75;;;-0.10;99.90;;;0.57;92.02;101626.16;5021483;28;20034;-85
2021/03/18 00:10:51;;;;;;;18.20;8.15;;;-0.20;99.90;;;0.52;92.34;101626.09;5004935;28;20038;-85
2021/03/18 00:13:20;;;;;;;16.08;8.73;;;-0.20;99.90;;;0.47;92.23;101618.69;5017822;28;20057;-84
2021/03/18 00:15:47;;;;;;;17.40;8.98;;;-0.20;99.90;;;0.37;92.47;101618.63;5001084;28;20096;-84
2021/03/18 00:18:19;;;;;;;19.63;8.73;;;-0.30;99.90;;;0.30;92.37;101620.78;5018741;28;20028;-84
2021/03/18 00:20:47;;;;;;;19.67;9.68;;;-0.30;99.90;;;0.34;93.40;101621.06;5000642;28;20022;-85
2021/03/18 00:23:15;;;;;;;20.25;10.25;;;-0.30;99.90;;;0.39;93.48;101624.66;5017744;28;20036;-84
2021/03/18 00:25:41;;;;;;;20.45;9.90;;;-0.30;99.90;;;0.45;94.12;101623.59;5016878;28;20029;-84
2021/03/18 00:28:07;;;;;;;22.92;10.38;;;-0.20;99.90;;;0.54;93.71;101623.94;5016894;28;20291;-85
2021/03/18 00:30:33;;;;;;;27.55;11.65;;;-0.20;99.90;;;0.62;94.14;101628.06;5018096;28;20061;-84
2021/03/18 00:33:00;;;;;;;19.35;10.00;;;-0.10;99.90;;;0.69;93.80;101625.91;5018896;28;20040;-85
2021/03/18 00:35:28;;;;;;;21.08;10.20;;;-0.10;99.90;;;0.67;93.65;101630.88;5018164;28;20034;-84
2021/03/18 00:37:56;;;;;;;16.50;9.23;;;-0.10;99.90;;;0.61;93.36;101631.94;5018031;28;20476;-84
2021/03/18 00:40:30;;;;;;;14.23;8.30;;;-0.10;99.90;;;0.50;93.35;101628.31;5000949;28;20026;-84
2021/03/18 00:43:11;;;;;;;13.63;8.15;;;-0.20;99.90;;;0.42;93.07;101632.38;5000859;28;20095;-84
2021/03/18 00:45:43;;;;;;;16.40;8.43;;;-0.30;99.90;;;0.37;93.12;101632.38;5017992;28;20025;-83
2021/03/18 00:48:12;;;;;;;14.95;7.88;;;-0.30;99.90;;;0.32;93.05;101631.53;5017616;28;20038;-85
2021/03/18 00:51:00;;;;;;;15.10;8.48;;;-0.30;99.90;;;0.26;93.31;101629.81;5016351;28;20519;-85
2021/03/18 00:53:36;;;;;;;18.83;9.50;;;-0.40;99.90;;;0.23;93.48;101636.66;5017862;28;20076;-85
2021/03/18 00:56:13;;;;;;;16.75;9.48;;;-0.50;99.90;;;0.24;93.79;101635.59;5018089;28;20090;-85
2021/03/18 00:58:45;;;;;;;20.02;9.55;;;-0.40;99.90;;;0.33;93.97;101633.16;5016749;28;20147;-85
2021/03/18 01:01:23;;;;;;;20.92;11.40;;;-0.40;99.90;;;0.39;94.54;101626.59;5000682;28;20058;-84
2021/03/18 01:03:49;;;;;;;17.15;10.02;;;-0.30;99.90;;;0.51;94.17;101636.28;5000454;28;20470;-85
2021/03/18 01:06:23;;;;;;;23.52;9.80;;;-0.30;99.90;;;0.52;93.78;101634.34;5000728;28;20036;-85
2021/03/18 01:08:52;;;;;;;14.25;8.50;;;-0.20;99.90;;;0.42;93.69;101629.63;5035514;28;20032;-83
2021/03/18 01:11:27;;;;;;;18.73;8.85;;;-0.30;99.90;;;0.42;93.63;101637.03;5040932;28;20124;-84
2021/03/18 01:14:11;;;;;;;15.65;9.15;;;-0.30;99.90;;;0.41;93.69;101633.50;5035919;28;20025;-85
2021/03/18 01:16:50;;;;;;;17.55;8.55;;;-0.30;99.90;;;0.41;93.45;101632.66;5038272;28;20453;-82
2021/03/18 01:19:21;;;;;;;15.18;8.57;;;-0.30;99.90;;;0.40;93.62;101634.59;5018644;28;20036;-84
2021/03/18 01:21:58;;;;;;;17.02;8.68;;;-0.30;99.90;;;0.38;93.49;101625.78;5018592;28;20408;-83
2021/03/18 01:24:24;;;;;;;17.23;9.50;;;-0.40;99.90;;;0.40;93.51;101631.84;5018684;28;20052;-85
2021/03/18 01:26:50;;;;;;;16.90;9.50;;;-0.30;99.90;;;0.46;93.93;101632.69;5019482;28;20124;-84
2021/03/18 01:29:16;;;;;;;20.52;9.55;;;-0.30;99.90;;;0.52;93.87;101628.84;5036243;28;20449;-86
2021/03/18 01:31:43;;;;;;;22.90;10.07;;;-0.20;99.90;;;0.56;93.60;101629.97;5038316;28;20041;-83
2021/03/18 01:34:10;;;;;;;17.85;9.85;;;-0.20;99.90;;;0.57;94.31;101628.91;5044503;28;20021;-85
2021/03/18 01:36:38;;;;;;;18.92;10.30;;;-0.20;99.90;;;0.66;94.42;101631.94;5030025;28;20419;-86
2021/03/18 01:39:07;;;;;;;23.65;11.07;;;-0.10;99.90;;;0.74;94.26;101634.19;5031683;28;20132;-83
2021/03/18 01:41:33;;;;;;;17.95;9.98;;;0.00;99.90;;;0.78;94.16;101632.53;5049520;28;20089;-84
2021/03/18 01:44:00;;;;;;;18.98;9.50;;;0.00;99.90;;;0.79;93.83;101640.53;5048682;28;20033;-84
2021/03/18 01:46:26;;;;;;;20.17;9.40;;;0.00;99.90;;;0.76;93.89;101613.56;5049328;28;20034;-84
2021/03/18 01:48:52;;;;;;;19.45;9.15;;;0.00;99.90;;;0.76;93.64;101626.50;5052006;28;20036;-83
2021/03/18 01:51:21;;;;;;;16.20;8.95;;;-0.10;99.90;;;0.70;93.20;101624.81;5055697;28;20068;-85
2021/03/18 01:53:49;;;;;;;17.40;9.77;;;-0.10;99.90;;;0.64;93.57;101628.66;5037532;28;20033;-85
2021/03/18 01:56:16;;;;;;;20.45;9.85;;;-0.10;99.90;;;0.60;93.51;101627.53;5056075;28;20033;-86
2021/03/18 01:58:46;;;;;;;15.60;9.00;;;-0.20;99.90;;;0.53;93.65;101619.53;5037515;28;20032;-86
2021/03/18 02:01:18;;;;;;;17.58;9.95;;;-0.20;99.90;;;0.48;93.48;101614.81;5037771;28;20039;-83
2021/03/18 02:03:44;;;;;;;18.40;9.80;;;-0.20;99.90;;;0.48;93.41;101617.56;5038700;28;20064;-83
2021/03/18 02:06:12;;;;;;;18.45;9.75;;;-0.20;99.90;;;0.53;93.83;101614.84;5039922;28;20029;-85
2021/03/18 02:08:38;;;;;;;15.48;9.80;;;-0.20;99.90;;;0.59;93.27;101620.38;5017908;28;20429;-83
2021/03/18 02:11:06;;;;;;;18.65;10.38;;;-0.20;99.90;;;0.59;93.59;101612.94;5029769;28;20038;-84
2021/03/18 02:13:32;;;;;;;20.02;10.95;;;-0.20;99.90;;;0.62;93.69;101614.31;5007512;28;20094;-84
2021/03/18 02:16:14;;;;;;;18.95;10.27;;;-0.20;99.90;;;0.66;94.12;101598.97;5021923;28;20030;-86
2021/03/18 02:19:32;;;;;;;18.27;10.45;;;-0.10;99.90;;;0.69;93.87;101599.25;5006923;28;20044;-83
2021/03/18 02:22:42;;;;;;;18.48;9.48;;;-0.10;99.90;;;0.65;93.63;101592.63;5006193;28;20466;-82
2021/03/18 02:25:23;;;;;;;21.55;9.85;;;-0.10;99.90;;;0.62;93.66;101589.59;5022667;28;20033;-84
2021/03/18 02:28:28;;;;;;;20.60;10.52;;;-0.10;99.90;;;0.60;93.62;101584.38;5022053;28;20037;-84
2021/03/18 02:31:32;;;;;;;20.65;10.80;;;-0.20;99.90;;;0.65;93.65;101586.28;5003339;28;20036;-83
2021/03/18 02:34:38;;;;;;;15.27;9.10;;;-0.10;99.90;;;0.70;93.49;101589.06;5002919;28;20026;-85
2021/03/18 02:37:13;;;;;;;19.08;9.85;;;-0.10;99.90;;;0.70;93.30;101584.41;5002842;28;20034;-84
2021/03/18 02:39:59;;;;;;;18.13;9.00;;;-0.10;99.90;;;0.63;93.47;101585.75;5019654;28;20026;-86
2021/03/18 02:42:32;;;;;;;18.80;9.80;;;-0.20;99.90;;;0.52;93.52;101577.47;5001731;28;20057;-86
2021/03/18 02:45:04;;;;;;;17.88;9.90;;;-0.20;99.90;;;0.46;93.43;101583.19;5001745;28;20037;-86
2021/03/18 02:47:36;;;;;;;17.00;10.05;;;-0.30;99.90;;;0.41;93.69;101586.78;5001788;28;20049;-85
2021/03/18 02:50:08;;;;;;;19.45;10.45;;;-0.30;99.90;;;0.38;94.01;101578.22;5002324;28;20033;-85
2021/03/18 02:52:38;;;;;;;17.63;10.45;;;-0.30;99.90;;;0.35;94.02;101574.06;5018064;28;20493;-86
2021/03/18 02:55:08;;;;;;;17.00;9.80;;;-0.30;99.90;;;0.36;94.36;101578.50;5019125;28;20033;-86
2021/03/18 02:57:39;;;;;;;18.90;10.15;;;-0.40;99.90;;;0.38;94.15;101576.31;5019182;28;20057;-85
2021/03/18 03:00:10;;;;;;;13.80;9.38;;;-0.40;99.90;;;0.37;94.12;101571.91;5001660;28;20026;-86
2021/03/18 03:02:39;;;;;;;16.55;9.52;;;-0.30;99.90;;;0.40;94.17;101568.63;5011418;28;20493;-84
2021/03/18 03:05:08;;;;;;;22.20;10.05;;;-0.40;99.90;;;0.35;93.99;101576.03;5029749;28;20033;-83
2021/03/18 03:07:36;;;;;;;13.93;8.43;;;-0.40;99.90;;;0.26;93.78;101563.88;5020451;28;20032;-83
2021/03/18 03:10:08;;;;;;;15.80;8.98;;;-0.50;99.90;;;0.20;94.08;101563.03;5051255;28;20026;-84
2021/03/18 03:12:36;;;;;;;15.77;9.60;;;-0.50;99.90;;;0.19;94.16;101572.38;5034500;28;20036;-84
2021/03/18 03:15:09;;;;;;;17.75;10.35;;;-0.60;99.90;;;0.19;93.99;101571.53;5051479;28;20060;-83
2021/03/18 03:17:36;;;;;;;21.23;10.75;;;-0.60;99.90;;;0.13;94.16;101564.38;5051686;28;20025;-83
2021/03/18 03:20:10;;;;;;;16.92;9.40;;;-0.60;99.90;;;0.05;93.71;101568.44;5034023;28;20060;-84
2021/03/18 03:22:38;;;;;;;15.60;9.27;;;-0.70;99.90;;;-0.08;94.43;101574.41;5034597;28;20048;-83
2021/03/18 03:25:11;;;;;;;16.35;9.73;;;-0.70;99.90;;;-0.13;94.54;101566.94;5036090;28;20045;-83
2021/03/18 03:27:41;;;;;;;17.90;9.93;;;-0.80;99.90;;;-0.11;94.67;101572.19;5036562;28;20420;-85
2021/03/18 03:30:10;;;;;;;20.83;10.70;;;-0.70;99.90;;;-0.06;94.96;101580.44;5036961;28;20047;-82
2021/03/18 03:32:36;;;;;;;20.27;9.82;;;-0.70;99.90;;;-0.05;94.55;101574.69;5035155;28;20033;-83
2021/03/18 03:35:06;;;;;;;16.35;10.35;;;-0.70;99.90;;;-0.05;95.03;101565.63;5035147;28;20029;-83
2021/03/18 03:37:32;;;;;;;16.40;10.02;;;-0.70;99.90;;;-0.12;94.86;101573.28;5052789;28;20025;-84
2021/03/18 03:39:58;;;;;;;17.85;8.75;;;-0.80;99.90;;;-0.20;94.78;101571.88;5031007;28;20026;-85
2021/03/18 03:42:24;;;;;;;15.95;8.65;;;-0.80;99.90;;;-0.23;94.84;101580.63;5025283;28;20032;-86
2021/03/18 03:44:50;;;;;;;16.58;9.85;;;-0.80;99.90;;;-0.25;94.76;101577.31;5025532;28;20040;-85
2021/03/18 03:47:16;;;;;;;19.63;11.60;;;-0.90;99.90;;;-0.25;95.62;101571.00;5026019;28;20072;-86
2021/03/18 03:49:44;;;;;;;17.80;11.23;;;-0.90;99.90;;;-0.19;95.54;101572.66;5041036;28;20036;-86
2021/03/18 03:52:42;;;;;;;23.30;11.68;;;-0.80;99.90;;;-0.13;95.70;101574.38;5022904;28;20026;-86
2021/03/18 03:55:47;;;;;;;20.33;12.23;;;-0.70;99.90;;;-0.06;95.57;101584.03;5022473;28;20087;-85
2021/03/18 03:58:35;;;;;;;26.27;12.05;;;-0.70;99.90;;;-0.01;95.54;101594.22;5022028;28;20477;-86
2021/03/18 04:01:09;;;;;;;22.52;11.30;;;-0.70;99.90;;;-0.06;95.31;101591.44;5024448;28;20030;-86
2021/03/18 04:03:36;;;;;;;22.17;11.35;;;-0.70;99.90;;;-0.17;95.07;101579.56;5041351;28;20093;-86
2021/03/18 04:06:06;;;;;;;16.98;10.40;;;-0.80;99.90;;;-0.27;94.87;101570.44;5024184;28;20034;-86
2021/03/18 04:08:40;;;;;;;19.85;11.27;;;-0.90;99.90;;;-0.35;95.35;101587.41;5008103;28;20036;-86
2021/03/18 04:11:10;;;;;;;21.48;11.68;;;-0.90;99.90;;;-0.35;95.75;101573.69;5003677;28;20034;-85
2021/03/18 04:13:37;;;;;;;19.70;11.85;;;-1.00;99.90;;;-0.37;95.75;101581.34;5016862;28;20116;-86
2021/03/18 04:16:05;;;;;;;17.92;10.18;;;-1.00;99.90;;;-0.37;95.87;101587.66;5000060;28;20029;-85
2021/03/18 04:18:40;;;;;;;18.75;10.23;;;-1.00;99.90;;;-0.41;95.58;101586.53;5018148;28;20029;-86
2021/03/18 04:21:11;;;;;;;21.10;11.77;;;-1.00;99.90;;;-0.38;96.12;101591.47;5016661;28;20022;-85
2021/03/18 04:23:39;;;;;;;20.98;11.68;;;-1.00;99.90;;;-0.29;96.17;101584.41;5018640;28;20080;-84
2021/03/18 04:26:07;;;;;;;17.65;11.23;;;-0.90;99.90;;;-0.24;96.01;101581.72;5018598;28;20132;-85
2021/03/18 04:28:35;;;;;;;23.90;12.75;;;-0.90;99.90;;;-0.27;95.62;101589.66;5018157;28;20337;-85
2021/03/18 04:31:07;;;;;;;18.70;11.05;;;-0.90;99.90;;;-0.20;95.62;101587.50;5000982;28;20033;-85
2021/03/18 04:33:35;;;;;;;23.17;11.10;;;-0.90;99.90;;;-0.20;95.83;101584.75;5019808;28;20109;-82
2021/03/18 04:36:04;;;;;;;23.27;11.95;;;-0.90;99.90;;;-0.18;95.61;101577.91;5010804;28;20040;-84
2021/03/18 04:38:33;;;;;;;20.80;11.00;;;-0.90;99.90;;;-0.20;95.42;101576.53;5028258;28;20052;-85
2021/03/18 04:41:00;;;;;;;21.33;12.43;;;-0.90;99.90;;;-0.27;95.82;101576.75;5013827;28;20041;-85
2021/03/18 04:43:27;;;;;;;19.45;12.40;;;-0.90;99.90;;;-0.25;95.85;101580.06;5030962;28;20067;-84
2021/03/18 04:45:58;;;;;;;20.73;11.82;;;-0.90;99.90;;;-0.24;95.90;101578.97;5013170;28;20033;-84
2021/03/18 04:48:26;;;;;;;26.80;12.63;;;-0.90;99.90;;;-0.16;95.99;101572.16;5034542;28;20085;-83
2021/03/18 04:50:53;;;;;;;25.77;13.15;;;-0.90;99.90;;;-0.06;96.28;101574.94;5018899;28;20096;-83
2021/03/18 04:53:21;;;;;;;26.05;14.25;;;-0.80;99.90;;;0.10;96.54;101567.66;5016090;28;20042;-83
2021/03/18 04:55:48;;;;;;;26.08;15.95;;;-0.70;99.90;;;0.26;96.89;101561.13;5033528;28;20033;-86
2021/03/18 04:58:19;;;;;;;27.60;15.25;;;-0.50;99.90;;;0.44;96.60;101557.91;5035390;28;20030;-85
2021/03/18 05:00:48;;;;;;;25.55;14.88;;;-0.40;99.90;;;0.58;95.89;101561.81;5035726;28;20505;-84
2021/03/18 05:03:16;;;;;;;24.92;14.05;;;-0.30;99.90;;;0.68;95.89;101559.09;5034962;28;20092;-85
2021/03/18 05:05:43;;;;;;;22.35;12.27;;;-0.20;99.90;;;0.67;95.61;101549.22;5034033;28;20037;-83
2021/03/18 05:08:12;;;;;;;25.73;12.77;;;-0.10;99.90;;;0.72;95.52;101553.88;5030567;28;20103;-83
2021/03/18 05:10:41;;;;;;;22.58;12.57;;;-0.10;99.90;;;0.77;95.19;101559.41;5033585;28;20032;-85
2021/03/18 05:13:11;;;;;;;20.98;12.30;;;-0.10;99.90;;;0.82;95.35;101559.41;5043961;28;20025;-84
2021/03/18 05:15:39;;;;;;;21.15;12.60;;;0.00;99.90;;;0.87;95.32;101556.66;5026426;28;20052;-84
2021/03/18 05:18:12;;;;;;;23.92;14.07;;;0.00;99.90;;;0.94;95.57;101551.72;5027567;28;20072;-83
2021/03/18 05:20:43;;;;;;;22.88;13.30;;;0.10;99.90;;;1.00;95.38;101556.97;5029939;28;20025;-83
2021/03/18 05:23:13;;;;;;;23.77;13.25;;;0.20;99.90;;;1.08;95.19;101547.34;5027681;28;20060;-84
2021/03/18 05:25:41;;;;;;;20.83;12.75;;;0.30;99.90;;;1.15;95.57;101541.59;5026805;28;20046;-86
2021/03/18 05:28:09;;;;;;;26.23;13.43;;;0.30;99.90;;;1.21;95.10;101548.75;5026316;28;20052;-85
2021/03/18 05:30:36;;;;;;;21.88;12.05;;;0.40;99.90;;;1.25;95.04;101539.69;5026143;28;20043;-82
2021/03/18 05:33:05;;;;;;;20.73;12.45;;;0.40;99.90;;;1.34;95.13;101538.03;5026267;28;20497;-85
2021/03/18 05:35:33;;;;;;;23.88;12.73;;;0.50;99.90;;;1.36;94.63;101540.47;5028073;28;20029;-84
2021/03/18 05:38:00;;;;;;;23.92;12.40;;;0.50;99.90;;;1.38;94.82;101535.56;5028280;28;20163;-82
2021/03/18 05:40:26;;;;;;;18.27;13.18;;;0.50;99.90;;;1.43;94.56;101538.28;5030322;28;20030;-84
2021/03/18 05:42:52;;;;;;;22.80;12.77;;;0.60;99.90;;;1.46;94.92;101549.56;5029608;28;20041;-84
2021/03/18 05:45:19;;;;;;;22.70;12.10;;;0.60;99.90;;;1.51;94.49;101557.00;5053477;28;20033;-84
2021/03/18 05:47:48;;;;;;;20.02;12.23;;;0.60;99.90;;;1.53;94.41;101544.63;5035346;28;20056;-83
2021/03/18 05:50:21;;;;;;;19.85;11.48;;;0.70;99.90;;;1.55;94.39;101531.41;5025934;28;20512;-85
2021/03/18 05:52:50;;;;;;;23.27;12.55;;;0.70;99.90;;;1.62;94.06;101533.03;5041462;28;20043;-82
2021/03/18 05:55:21;;;;;;;19.35;12.77;;;0.70;99.90;;;1.61;94.33;101536.91;5023925;28;20033;-83
2021/03/18 05:57:51;;;;;;;22.50;12.32;;;0.80;99.90;;;1.69;93.67;101539.09;5023126;28;20026;-85
2021/03/18 06:00:19;;;;;;;23.92;12.63;;;0.80;99.90;;;1.72;93.56;101533.84;5023783;28;20405;-84
2021/03/18 06:02:45;;;;;;;20.70;12.60;;;0.80;99.90;;;1.78;93.06;101526.41;5021643;28;20037;-82
2021/03/18 06:05:15;;;;;;;21.05;12.48;;;0.90;99.90;;;1.85;93.05;101529.69;5037323;28;20064;-84
2021/03/18 06:07:47;;;;;;;24.75;12.57;;;0.90;99.90;;;1.84;93.12;101533.56;5019675;28;20038;-84
2021/03/18 06:10:23;;;;;;;23.08;11.70;;;1.00;99.90;;;1.93;92.80;101531.88;5020229;28;20030;-83
2021/03/18 06:12:54;;;;;;;22.17;11.57;;;1.00;99.90;;;1.91;92.69;101534.09;5022780;28;20039;-82
2021/03/18 06:15:23;;;;;;;25.50;11.35;;;1.10;99.90;;;2.04;92.79;101542.59;5025984;28;20033;-83
2021/03/18 06:17:55;;;;;;;21.00;11.73;;;1.10;99.90;;;2.08;92.78;101527.16;5043724;28;20033;-82
2021/03/18 06:20:26;;;;;;;23.50;11.27;;;1.20;99.90;;;2.15;92.42;101526.03;5027176;28;20033;-83
2021/03/18 06:23:09;;;;;;;23.08;10.73;;;1.20;99.90;;;2.25;92.40;101529.56;5026306;28;20103;-85
2021/03/18 06:26:50;;;;;;;18.77;10.80;;;1.30;99.90;;;2.32;92.15;101518.25;5041198;28;20436;-86
2021/03/18 06:29:38;;;;;;;19.20;10.13;;;1.30;99.90;;;2.42;91.79;101520.97;4986536;28;20481;-83
2021/03/18 06:32:13;;;;;;;17.38;10.98;;;1.40;99.90;;;2.53;91.00;101522.56;5022195;28;20041;-85
2021/03/18 06:34:56;;;;;;;16.45;10.27;;;1.50;99.90;;;2.58;91.39;101515.09;5027211;28;20036;-84
2021/03/18 06:37:50;;;;;;;24.75;11.13;;;1.60;99.90;;;2.66;91.11;101508.16;5029576;28;20025;-83
2021/03/18 06:40:24;;;;;;;19.30;11.15;;;1.70;99.90;;;2.80;91.23;101509.16;5047714;28;20144;-83
2021/03/18 06:43:02;;;;;;;21.70;11.65;;;1.80;99.90;;;2.93;90.91;101500.25;5023935;28;20053;-84
2021/03/18 06:45:33;;;;;;;22.42;11.25;;;1.90;99.90;;;3.15;90.22;101499.81;5041576;28;20481;-84
2021/03/18 06:48:14;;;;;;;20.02;11.73;;;2.10;99.90;;;3.33;89.64;101490.84;5022713;28;20539;-85
2021/03/18 06:50:48;;;;;;;19.17;10.77;;;2.30;99.90;;;3.55;89.13;101498.63;5024035;28;20045;-82
2021/03/18 06:53:30;;;;;;;16.08;10.68;;;2.40;99.90;;;3.75;87.86;101501.22;5024774;28;20385;-84
2021/03/18 06:55:56;;;;;;;18.40;10.23;;;2.60;99.90;;;3.85;87.43;101497.50;5041437;28;20029;-84
2021/03/18 06:58:26;;;;;;;22.05;9.40;;;2.70;99.90;;;3.78;86.50;101492.34;5043167;28;20061;-85
2021/03/18 07:01:05;;;;;;;18.73;10.02;;;2.70;99.90;;;3.78;86.98;101491.50;5023897;28;20029;-84
2021/03/18 07:03:40;;;;;;;19.77;10.38;;;2.70;99.90;;;3.91;86.90;101490.81;5046289;28;20551;-82
2021/03/18 07:06:25;;;;;;;16.48;10.77;;;2.90;99.90;;;4.05;86.29;101487.03;5028052;28;20101;-82
2021/03/18 07:09:11;;;;;;;19.08;10.55;;;3.10;99.90;;;3.99;85.82;101490.16;5030245;28;20044;-83
2021/03/18 07:11:47;;;;;;;20.92;10.65;;;3.20;99.90;;;4.16;85.00;101487.75;5047446;28;20072;-82
2021/03/18 07:14:14;;;;;;;17.73;10.27;;;3.30;99.90;;;4.41;84.47;101481.88;5028579;28;20029;-82
2021/03/18 07:16:48;;;;;;;18.58;10.05;;;3.40;99.90;;;4.54;83.69;101472.84;5028548;28;20405;-83
2021/03/18 07:19:26;;;;;;;15.95;9.82;;;3.50;99.90;;;4.60;83.59;101485.50;5031087;28;20053;-83
2021/03/18 07:21:54;;;;;;;20.17;10.05;;;3.50;99.90;;;4.66;83.68;101484.31;5029268;28;20126;-83
2021/03/18 07:24:37;;;;;;;21.02;10.68;;;3.60;99.90;;;4.77;83.27;101487.75;5032357;28;20021;-83
2021/03/18 07:27:16;;;;;;;17.05;10.93;;;3.70;99.90;;;5.06;82.92;101482.88;5028404;28;20029;-82
2021/03/18 07:29:48;;;;;;;18.38;10.07;;;3.90;99.90;;;5.20;81.94;101483.72;5022904;28;20024;-84
2021/03/18 07:32:16;;;;;;;17.75;9.95;;;4.00;99.90;;;5.41;81.84;101487.00;5026389;28;20029;-83
2021/03/18 07:34:46;;;;;;;16.70;9.45;;;4.20;99.90;;;5.42;80.22;101485.06;5027201;28;20029;-82
2021/03/18 07:37:17;;;;;;;16.63;10.05;;;4.30;99.90;;;5.62;80.88;101473.63;5027365;28;20060;-82
2021/03/18 07:39:45;;;;;;;19.23;10.60;;;4.40;99.90;;;5.77;79.94;101476.94;5027104;28;20025;-84
2021/03/18 07:42:16;;;;;;;18.92;8.73;;;4.80;99.90;;;6.27;78.09;101483.44;5044840;28;20558;-82
2021/03/18 07:44:49;;;;;;;13.60;8.35;;;5.00;99.90;;;6.80;76.58;101488.41;5029608;28;20110;-81
2021/03/18 07:47:18;;;;;;;16.02;8.40;;;5.40;99.90;;;7.07;74.57;101491.06;5029715;28;20072;-83
2021/03/18 07:49:52;;;;;;;12.30;7.35;;;5.70;99.90;;;7.06;74.42;101496.97;5031186;28;20037;-81
2021/03/18 07:52:25;;;;;;;14.88;8.07;;;5.80;99.90;;;7.50;74.07;101488.63;5031243;28;20041;-83
2021/03/18 07:54:58;;;;;;;12.77;8.10;;;6.10;99.90;;;8.09;71.41;101487.28;5030098;28;20036;-85
2021/03/18 07:57:26;;;;;;;16.48;7.13;;;6.70;99.90;;;8.78;68.95;101481.94;5028236;28;20052;-81
2021/03/18 08:00:13;;;;;;;15.85;7.70;;;7.20;99.90;;;9.07;66.99;101484.06;5040686;28;20029;-81
2021/03/18 08:02:39;;;;;;;15.30;7.65;;;7.60;99.90;;;8.55;68.52;101485.97;5021332;28;20504;-82
2021/03/18 08:05:06;;;;;;;13.98;7.30;;;7.50;99.90;;;8.58;68.49;101471.41;5021244;28;20025;-82
2021/03/18 08:07:45;;;;;;;11.10;5.80;;;7.60;99.90;;;8.83;68.34;101482.59;5040232;28;20079;-80
2021/03/18 08:10:39;;;;;;;10.05;4.82;;;7.60;99.90;;;8.53;65.65;101485.50;5040663;28;20022;-81
2021/03/18 08:13:05;;;;;;;15.10;5.00;;;7.50;99.90;;;7.99;67.40;101476.47;5021764;28;20503;-81
2021/03/18 08:15:39;;;;;;;11.20;5.88;;;6.90;99.90;;;7.74;69.73;101480.72;5021987;28;20033;-82
2021/03/18 08:18:14;;;;;;;12.10;5.28;;;6.80;99.90;;;7.88;69.11;101483.44;5021050;28;20025;-81
2021/03/18 08:20:40;;;;;;;11.43;5.28;;;6.70;99.90;;;7.75;69.15;101476.00;5021707;28;20029;-83
2021/03/18 08:23:36;;;;;;;12.73;6.32;;;6.60;99.90;;;7.41;70.11;101484.97;5037504;28;20029;-83
2021/03/18 08:26:33;;;;;;;15.70;7.43;;;6.30;99.90;;;7.03;71.87;101483.69;5027791;28;20513;-81
2021/03/18 08:29:04;;;;;;;19.50;8.45;;;6.10;99.90;;;6.90;72.34;101477.84;5030176;28;20034;-81
2021/03/18 08:31:32;;;;;;;13.20;7.82;;;5.90;99.90;;;7.13;72.81;101477.88;5036017;28;20099;-81
2021/03/18 08:34:01;;;;;;;17.52;7.15;;;6.00;99.90;;;7.26;72.25;101479.78;5041360;28;20037;-81
2021/03/18 08:36:39;;;;;;;13.98;6.95;;;6.10;99.90;;;7.46;72.46;101481.22;5042787;28;20579;-81
2021/03/18 08:39:48;;;;;;;13.95;6.88;;;6.30;99.90;;;7.34;71.33;101484.59;5024338;28;20032;-81
2021/03/18 08:42:29;;;;;;;20.15;10.10;;;6.30;99.90;;;7.19;71.15;101476.63;5024973;28;20064;-81
2021/03/18 08:45:18;;;;;;;24.13;13.38;;;6.20;99.90;;;7.16;70.85;101466.16;5051277;28;20021;-83
2021/03/18 08:47:56;;;;;;;20.13;10.38;;;6.10;99.90;;;7.18;70.21;101469.44;5016380;28;20052;-83
2021/03/18 08:50:26;;;;;;;16.38;10.23;;;6.20;99.90;;;7.52;69.14;101479.94;5040977;28;20032;-83
2021/03/18 08:53:11;;;;;;;14.88;11.13;;;6.30;99.90;;;7.57;69.12;101486.22;5025924;28;20026;-82
2021/03/18 08:55:39;;;;;;;21.48;11.80;;;6.40;99.90;;;7.82;68.57;101466.06;5023803;28;20026;-82
2021/03/18 08:58:17;;;;;;;22.00;12.25;;;6.60;99.90;;;8.00;67.92;101483.66;5022883;28;20049;-83
2021/03/18 09:00:46;;;;;;;20.45;12.05;;;6.80;99.90;;;7.82;67.29;101481.94;5022434;28;20036;-82
2021/03/18 09:03:22;;;;;;;19.58;11.30;;;6.80;99.90;;;7.77;69.00;101491.22;5022111;28;20033;-83
2021/03/18 09:05:58;;;;;;;22.02;11.55;;;6.70;99.90;;;7.72;68.89;101488.59;5021630;28;20041;-82
2021/03/18 09:08:35;;;;;;;19.38;10.73;;;6.60;99.90;;;7.78;67.45;101483.69;5006886;28;20040;-81
2021/03/18 09:11:02;;;;;;;23.52;11.98;;;6.70;99.90;;;7.86;67.05;101480.97;5001120;28;20030;-84
2021/03/18 09:13:28;;;;;;;26.45;13.50;;;6.80;99.90;;;7.97;67.36;101481.50;5018452;28;20524;-81
2021/03/18 09:15:57;;;;;;;26.88;14.85;;;6.80;99.90;;;7.92;68.01;101482.47;5001221;28;20057;-81
2021/03/18 09:18:27;;;;;;;28.02;15.73;;;6.80;99.90;;;8.09;66.27;101469.78;5019406;28;20054;-82
2021/03/18 09:21:01;;;;;;;24.20;15.20;;;6.90;99.90;;;7.83;67.60;101473.25;5019184;28;20061;-83
2021/03/18 09:23:38;;;;;;;29.08;14.07;;;6.70;99.90;;;8.24;66.78;101464.59;5018926;28;20502;-84
2021/03/18 09:26:10;;;;;;;23.80;13.50;;;7.00;99.90;;;8.44;64.97;101472.34;5020901;28;20029;-83
2021/03/18 09:28:46;;;;;;;22.27;14.07;;;7.10;99.90;;;8.25;65.05;101466.22;5004643;28;20557;-83
2021/03/18 09:31:13;;;;;;;26.20;14.98;;;7.10;99.90;;;8.20;65.13;101468.34;5003710;28;20030;-83
2021/03/18 09:33:43;;;;;;;25.02;15.98;;;7.00;99.90;;;8.29;66.15;101461.69;5020261;28;20037;-81
2021/03/18 09:36:19;;;;;;;28.67;15.43;;;7.10;99.90;;;8.21;64.92;101472.78;5004625;28;20030;-83
2021/03/18 09:39:11;;;;;;;28.25;16.00;;;7.20;99.90;;;8.01;66.16;101474.16;5020385;28;20026;-83
2021/03/18 09:41:43;;;;;;;32.13;16.85;;;7.10;99.90;;;8.26;66.11;101483.75;5020180;28;20425;-83
2021/03/18 09:44:22;;;;;;;32.92;15.88;;;7.10;99.90;;;8.23;64.83;101465.72;5004457;28;20034;-82
2021/03/18 09:47:05;;;;;;;28.65;16.65;;;7.10;99.90;;;7.72;66.02;101479.41;5003273;28;20406;-82
2021/03/18 09:49:40;;;;;;;31.65;17.75;;;6.80;99.90;;;7.41;66.96;101471.91;5003698;28;20033;-85
2021/03/18 09:52:21;;;;;;;34.10;17.23;;;6.50;99.90;;;7.80;66.85;101479.44;5021962;28;20030;-83
2021/03/18 09:54:50;;;;;;;37.03;18.40;;;6.70;99.90;;;8.26;66.05;101461.47;5026032;28;20038;-84
2021/03/18 09:57:16;;;;;;;32.88;18.85;;;6.90;99.90;;;8.34;64.43;101464.34;5018211;28;20081;-84
2021/03/18 09:59:48;;;;;;;36.13;19.35;;;7.20;99.90;;;8.40;64.46;101467.78;5020440;28;20048;-84
2021/03/18 10:02:24;;;;;;;27.60;15.68;;;7.30;99.90;;;8.60;63.40;101461.59;5004359;28;20528;-84
2021/03/18 10:04:50;;;;;;;29.83;16.70;;;7.50;99.90;;;9.05;62.04;101459.34;5021329;28;20030;-84
2021/03/18 10:07:16;;;;;;;28.85;15.57;;;7.80;99.90;;;9.62;60.73;101454.31;5008882;28;20033;-84
2021/03/18 10:09:46;;;;;;;36.38;18.15;;;8.30;99.90;;;9.92;59.31;101450.44;5038999;28;20040;-84
2021/03/18 10:12:20;;;;;;;23.15;12.27;;;8.60;99.90;;;9.70;59.14;101450.69;5042868;28;20025;-86
2021/03/18 10:15:03;;;;;;;18.63;11.27;;;8.50;99.90;;;8.70;61.34;101447.34;5025086;28;20034;-87
2021/03/18 10:17:36;;;;;;;22.75;11.88;;;7.90;99.90;;;8.15;63.46;101441.50;5024980;28;20056;-85
2021/03/18 10:20:18;;;;;;;23.50;12.85;;;7.30;99.90;;;8.29;63.27;101447.75;5043395;28;20037;-86
2021/03/18 10:23:10;;;;;;;24.90;14.10;;;7.30;99.90;;;8.25;63.54;101441.16;5025892;28;20026;-84
2021/03/18 10:25:40;;;;;;;21.85;13.13;;;7.30;99.90;;;8.37;63.10;101429.47;5027819;28;20489;-83
2021/03/18 10:28:15;;;;;;;21.77;11.50;;;7.30;99.90;;;8.81;62.01;101423.59;5027112;28;20021;-84
2021/03/18 10:30:50;;;;;;;24.45;13.60;;;7.70;99.90;;;8.79;61.18;101437.06;5024788;28;20036;-84
2021/03/18 10:33:26;;;;;;;26.02;13.52;;;7.80;99.90;;;8.44;61.58;101429.81;5026079;28;20109;-85
2021/03/18 10:35:53;;;;;;;24.25;13.68;;;7.50;99.90;;;8.29;62.70;101422.72;5044114;28;20029;-84